NDF12E EDDM-LKPR
Flight info
| Callsign | NDF12E |
|---|---|
| Flight time | 0h 35m |
| Altitude | 24000 |
| Route | AKINI1N/26R AKINI Y104 MAMOR L132 AGNAV/N0392F230 DCT LOMKI LOMKI9R |
| Aircraft | A321/M-SDE3FGHIRWY/LB1 |
Departure
| Time | 2026-05-04 08:33 |
|---|---|
| Airport | Munich Airport (EDDM) |
Arrival
| Time | 2026-05-04 09:08 |
|---|---|
| Airport | Václav Havel Airport Prague (LKPR) |
| Time | Latitude | Longitude | Altitude | Speed | Heading |
|---|---|---|---|---|---|
| 2026-05-04 08:06 | 48.35666 | 11.79948 | 1486 ft | 0 kts | 263° |
| 2026-05-04 08:17 | 48.35666 | 11.79949 | 1485 ft | 0 kts | 263° |
| 2026-05-04 08:17 | 48.35669 | 11.79981 | 1481 ft | 4 kts | 263° |
| 2026-05-04 08:17 | 48.35672 | 11.80022 | 1475 ft | 4 kts | 263° |
| 2026-05-04 08:19 | 48.35624 | 11.80103 | 1476 ft | 0 kts | 353° |
| 2026-05-04 08:24 | 48.35823 | 11.79927 | 1485 ft | 11 kts | 264° |
| 2026-05-04 08:24 | 48.35814 | 11.79801 | 1477 ft | 13 kts | 263° |
| 2026-05-04 08:24 | 48.35804 | 11.79662 | 1472 ft | 14 kts | 263° |
| 2026-05-04 08:24 | 48.35825 | 11.79530 | 1481 ft | 14 kts | 332° |
| 2026-05-04 08:25 | 48.35924 | 11.79508 | 1481 ft | 15 kts | 353° |
| 2026-05-04 08:25 | 48.36030 | 11.79490 | 1479 ft | 16 kts | 353° |
| 2026-05-04 08:25 | 48.36126 | 11.79474 | 1477 ft | 14 kts | 353° |
| 2026-05-04 08:25 | 48.36214 | 11.79516 | 1483 ft | 15 kts | 59° |
| 2026-05-04 08:26 | 48.36227 | 11.79672 | 1485 ft | 16 kts | 84° |
| 2026-05-04 08:27 | 48.36333 | 11.81038 | 1485 ft | 22 kts | 83° |
| 2026-05-04 08:28 | 48.36351 | 11.81268 | 1475 ft | 22 kts | 83° |
| 2026-05-04 08:28 | 48.36368 | 11.81480 | 1481 ft | 19 kts | 83° |
| 2026-05-04 08:28 | 48.36384 | 11.81677 | 1480 ft | 20 kts | 83° |
| 2026-05-04 08:28 | 48.36397 | 11.81857 | 1485 ft | 15 kts | 84° |
| 2026-05-04 08:29 | 48.36416 | 11.81988 | 1476 ft | 13 kts | 38° |
| 2026-05-04 08:29 | 48.36494 | 11.81994 | 1484 ft | 8 kts | 352° |
| 2026-05-04 08:29 | 48.36537 | 11.81987 | 1481 ft | 4 kts | 354° |
| 2026-05-04 08:31 | 48.36654 | 11.81666 | 1485 ft | 35 kts | 264° |
| 2026-05-04 08:33 | 48.35771 | 11.70131 | 3921 ft | 218 kts | 271° |
| 2026-05-04 08:33 | 48.35952 | 11.68569 | 4009 ft | 233 kts | 291° |
| 2026-05-04 08:35 | 48.47581 | 11.64550 | 8058 ft | 290 kts | 26° |
| 2026-05-04 08:35 | 48.49270 | 11.66223 | 8801 ft | 294 kts | 43° |
| 2026-05-04 08:35 | 48.50600 | 11.68587 | 9510 ft | 298 kts | 55° |
| 2026-05-04 08:35 | 48.51828 | 11.71144 | 10208 ft | 303 kts | 55° |
| 2026-05-04 08:37 | 48.59540 | 11.87138 | 14244 ft | 327 kts | 54° |
| 2026-05-04 08:37 | 48.60886 | 11.89930 | 14850 ft | 330 kts | 54° |
| 2026-05-04 08:37 | 48.62242 | 11.92750 | 15489 ft | 333 kts | 54° |
| 2026-05-04 08:38 | 48.63609 | 11.95598 | 16109 ft | 337 kts | 55° |
| 2026-05-04 08:38 | 48.64989 | 11.98482 | 16733 ft | 340 kts | 55° |
| 2026-05-04 08:38 | 48.66380 | 12.01394 | 17345 ft | 343 kts | 55° |
| 2026-05-04 08:40 | 48.80275 | 12.16144 | 20300 ft | 389 kts | 24° |
| 2026-05-04 08:40 | 48.82767 | 12.17956 | 20427 ft | 404 kts | 25° |
| 2026-05-04 08:40 | 48.85336 | 12.19833 | 20677 ft | 415 kts | 25° |
| 2026-05-04 08:41 | 48.87954 | 12.21744 | 21154 ft | 419 kts | 25° |
| 2026-05-04 08:41 | 48.90596 | 12.23659 | 21670 ft | 422 kts | 24° |
| 2026-05-04 08:41 | 48.93233 | 12.25533 | 22184 ft | 425 kts | 24° |
| 2026-05-04 08:41 | 48.95899 | 12.27404 | 22713 ft | 427 kts | 24° |
| 2026-05-04 08:42 | 48.98632 | 12.29315 | 23195 ft | 430 kts | 24° |
| 2026-05-04 08:42 | 49.01354 | 12.31221 | 23668 ft | 432 kts | 24° |
| 2026-05-04 08:42 | 49.04096 | 12.33146 | 23953 ft | 434 kts | 24° |
| 2026-05-04 08:42 | 49.06833 | 12.35079 | 24019 ft | 432 kts | 24° |
| 2026-05-04 08:43 | 49.09544 | 12.37002 | 24048 ft | 429 kts | 24° |
| 2026-05-04 08:43 | 49.12248 | 12.38923 | 24035 ft | 429 kts | 24° |
| 2026-05-04 08:43 | 49.14950 | 12.40843 | 24039 ft | 428 kts | 24° |
| 2026-05-04 08:43 | 49.17654 | 12.42766 | 24031 ft | 429 kts | 24° |
| 2026-05-04 08:44 | 49.20321 | 12.44667 | 24044 ft | 428 kts | 24° |
| 2026-05-04 08:44 | 49.23022 | 12.46599 | 24044 ft | 428 kts | 24° |
| 2026-05-04 08:46 | 49.42543 | 12.56926 | 24040 ft | 426 kts | 10° |
| 2026-05-04 08:46 | 49.45449 | 12.57847 | 24040 ft | 427 kts | 10° |
| 2026-05-04 08:46 | 49.48357 | 12.58775 | 24040 ft | 427 kts | 10° |
| 2026-05-04 08:46 | 49.51265 | 12.59707 | 24041 ft | 427 kts | 11° |
| 2026-05-04 08:47 | 49.54086 | 12.61037 | 23880 ft | 421 kts | 21° |
| 2026-05-04 08:47 | 49.56660 | 12.63079 | 23640 ft | 413 kts | 32° |
| 2026-05-04 08:47 | 49.58934 | 12.65732 | 23316 ft | 409 kts | 42° |
| 2026-05-04 08:47 | 49.60888 | 12.68897 | 22899 ft | 406 kts | 50° |
| 2026-05-04 08:48 | 49.62707 | 12.72207 | 22487 ft | 403 kts | 50° |
| 2026-05-04 08:48 | 49.64494 | 12.75455 | 22101 ft | 401 kts | 49° |
| 2026-05-04 08:48 | 49.66294 | 12.78728 | 21709 ft | 399 kts | 49° |
| 2026-05-04 08:48 | 49.68084 | 12.81994 | 21334 ft | 397 kts | 50° |
| 2026-05-04 08:49 | 49.69860 | 12.85248 | 20939 ft | 395 kts | 50° |
| 2026-05-04 08:50 | 49.80321 | 13.04460 | 18751 ft | 383 kts | 50° |
| 2026-05-04 08:50 | 49.81999 | 13.07565 | 18456 ft | 379 kts | 50° |
| 2026-05-04 08:51 | 49.83682 | 13.10681 | 17974 ft | 377 kts | 50° |
| 2026-05-04 08:51 | 49.85358 | 13.13787 | 17521 ft | 374 kts | 50° |
| 2026-05-04 08:51 | 49.87017 | 13.16859 | 17070 ft | 370 kts | 50° |
| 2026-05-04 08:51 | 49.88625 | 13.19956 | 16616 ft | 367 kts | 56° |
| 2026-05-04 08:52 | 49.89834 | 13.23423 | 16161 ft | 364 kts | 69° |
| 2026-05-04 08:52 | 49.90452 | 13.27165 | 15913 ft | 353 kts | 86° |
| 2026-05-04 08:52 | 49.90501 | 13.30882 | 15834 ft | 338 kts | 92° |
| 2026-05-04 08:52 | 49.90498 | 13.34494 | 15761 ft | 336 kts | 92° |
| 2026-05-04 08:53 | 49.90489 | 13.38089 | 15680 ft | 343 kts | 92° |
| 2026-05-04 08:54 | 49.90289 | 13.64814 | 12868 ft | 347 kts | 92° |
| 2026-05-04 08:55 | 49.90256 | 13.68553 | 12478 ft | 345 kts | 92° |
| 2026-05-04 08:55 | 49.90222 | 13.72219 | 12098 ft | 344 kts | 93° |
| 2026-05-04 08:55 | 49.90185 | 13.75909 | 11706 ft | 342 kts | 93° |
| 2026-05-04 08:55 | 49.90147 | 13.79589 | 11332 ft | 340 kts | 93° |
| 2026-05-04 08:57 | 49.89876 | 14.04127 | 9251 ft | 303 kts | 93° |
| 2026-05-04 09:01 | 49.89214 | 14.48083 | 4157 ft | 273 kts | 92° |
| 2026-05-04 09:01 | 49.89126 | 14.50988 | 3997 ft | 269 kts | 92° |
| 2026-05-04 09:01 | 49.89026 | 14.53893 | 4009 ft | 270 kts | 92° |
| 2026-05-04 09:01 | 49.89240 | 14.56753 | 4010 ft | 268 kts | 68° |
| 2026-05-04 09:02 | 49.90270 | 14.59022 | 3995 ft | 249 kts | 34° |
| 2026-05-04 09:02 | 49.91757 | 14.59955 | 4001 ft | 224 kts | 3° |
| 2026-05-04 09:02 | 49.93259 | 14.59604 | 4039 ft | 220 kts | 335° |
| 2026-05-04 09:02 | 49.94456 | 14.58152 | 4018 ft | 220 kts | 308° |
| 2026-05-04 09:03 | 49.95381 | 14.56260 | 4008 ft | 220 kts | 307° |
| 2026-05-04 09:03 | 49.96304 | 14.54361 | 4012 ft | 221 kts | 307° |
| 2026-05-04 09:03 | 49.97235 | 14.52455 | 4014 ft | 222 kts | 308° |
| 2026-05-04 09:03 | 49.98167 | 14.50546 | 4011 ft | 222 kts | 308° |
| 2026-05-04 09:04 | 49.99099 | 14.48636 | 4009 ft | 222 kts | 307° |
| 2026-05-04 09:04 | 50.00033 | 14.46722 | 3996 ft | 223 kts | 307° |
| 2026-05-04 09:04 | 50.00966 | 14.44806 | 3838 ft | 219 kts | 308° |
| 2026-05-04 09:04 | 50.01850 | 14.42990 | 3579 ft | 208 kts | 308° |
| 2026-05-04 09:05 | 50.02703 | 14.41239 | 3304 ft | 199 kts | 309° |
| 2026-05-04 09:05 | 50.03511 | 14.39576 | 3053 ft | 185 kts | 309° |
| 2026-05-04 09:05 | 50.04249 | 14.38056 | 2819 ft | 168 kts | 309° |
| 2026-05-04 09:05 | 50.04919 | 14.36677 | 2609 ft | 155 kts | 309° |
| 2026-05-04 09:06 | 50.05557 | 14.35365 | 2402 ft | 150 kts | 308° |
| 2026-05-04 09:07 | 50.09717 | 14.26775 | 1209 ft | 100 kts | 307° |
| 2026-05-04 09:08 | 50.10031 | 14.26126 | 1192 ft | 54 kts | 307° |
| 2026-05-04 09:08 | 50.10207 | 14.25775 | 1187 ft | 21 kts | 314° |
| 2026-05-04 09:08 | 50.10295 | 14.25685 | 1187 ft | 15 kts | 341° |
| 2026-05-04 09:08 | 50.10375 | 14.25658 | 1184 ft | 13 kts | 353° |
| 2026-05-04 09:09 | 50.10462 | 14.25679 | 1182 ft | 12 kts | 29° |
| 2026-05-04 09:09 | 50.10492 | 14.25820 | 1174 ft | 16 kts | 81° |
| 2026-05-04 09:09 | 50.10514 | 14.25983 | 1174 ft | 16 kts | 79° |
| 2026-05-04 09:09 | 50.10533 | 14.26127 | 1171 ft | 12 kts | 78° |
| 2026-05-04 09:10 | 50.10533 | 14.26228 | 1174 ft | 10 kts | 102° |
| 2026-05-04 09:10 | 50.10523 | 14.26298 | 1174 ft | 5 kts | 67° |
| 2026-05-04 09:10 | 50.10551 | 14.26336 | 1170 ft | 4 kts | 36° |
| 2026-05-04 09:10 | 50.10559 | 14.26346 | 1169 ft | 0 kts | 36° |